createdAt,value
2023-03-29T00:00:21.981Z,3.80
2023-03-29T00:02:49.489Z,3.77
2023-03-29T00:05:19.580Z,3.62
2023-03-29T00:07:46.986Z,3.75
2023-03-29T00:10:14.666Z,3.82
2023-03-29T00:12:42.045Z,3.79
2023-03-29T00:15:09.706Z,3.92
2023-03-29T00:17:37.328Z,3.77
2023-03-29T00:20:06.217Z,3.74
2023-03-29T00:22:33.773Z,3.67
2023-03-29T00:25:01.102Z,3.66
2023-03-29T00:27:28.445Z,3.79
2023-03-29T00:29:56.494Z,3.60
2023-03-29T00:32:23.977Z,3.54
2023-03-29T00:34:51.906Z,3.67
2023-03-29T00:37:19.485Z,3.79
2023-03-29T00:39:46.921Z,3.54
2023-03-29T00:42:16.640Z,3.53
2023-03-29T00:45:02.166Z,3.54
2023-03-29T00:47:43.768Z,3.70
2023-03-29T00:50:28.454Z,3.50
2023-03-29T00:53:10.608Z,3.49
2023-03-29T00:55:43.221Z,3.43
2023-03-29T00:58:15.694Z,3.49
2023-03-29T01:01:07.490Z,3.60
2023-03-29T01:03:42.618Z,3.75
2023-03-29T01:06:13.153Z,3.72
2023-03-29T01:08:49.768Z,3.87
2023-03-29T01:11:22.610Z,3.70
2023-03-29T01:14:02.961Z,3.67
2023-03-29T01:16:32.455Z,3.78
2023-03-29T01:19:00.114Z,3.72
2023-03-29T01:21:52.948Z,3.60
2023-03-29T01:24:32.320Z,3.54
2023-03-29T01:27:02.511Z,3.72
2023-03-29T01:29:46.887Z,3.63
2023-03-29T01:32:23.849Z,3.52
2023-03-29T01:34:58.410Z,3.53
2023-03-29T01:37:34.549Z,3.64
2023-03-29T01:40:02.232Z,3.66
2023-03-29T01:42:49.294Z,3.82
2023-03-29T01:45:25.689Z,3.79
2023-03-29T01:48:23.026Z,3.62
2023-03-29T01:50:53.524Z,3.76
2023-03-29T01:53:32.628Z,3.64
2023-03-29T01:56:06.913Z,3.64
2023-03-29T01:58:38.750Z,3.82
2023-03-29T02:01:09.435Z,3.61
2023-03-29T02:03:41.740Z,3.51
2023-03-29T02:06:17.240Z,3.34
2023-03-29T02:08:46.086Z,3.38
2023-03-29T02:11:14.412Z,3.34
2023-03-29T02:13:41.747Z,3.44
2023-03-29T02:16:11.508Z,3.55
2023-03-29T02:18:46.021Z,3.47
2023-03-29T02:21:32.661Z,3.37
2023-03-29T02:24:05.219Z,3.36
2023-03-29T02:26:32.810Z,3.38
2023-03-29T02:29:00.509Z,3.18
2023-03-29T02:31:27.803Z,3.22
2023-03-29T02:34:09.457Z,3.10
2023-03-29T02:36:50.690Z,3.52
2023-03-29T02:39:19.613Z,3.48
2023-03-29T02:41:50.444Z,3.21
2023-03-29T02:44:22.430Z,3.08
2023-03-29T02:46:53.702Z,3.40
2023-03-29T02:49:21.314Z,3.54
2023-03-29T02:51:52.617Z,3.43
2023-03-29T02:54:23.443Z,2.85
2023-03-29T02:56:59.296Z,3.14
2023-03-29T02:59:27.229Z,3.02
2023-03-29T03:01:54.542Z,3.10
2023-03-29T03:04:22.237Z,2.93
2023-03-29T03:06:49.824Z,3.03
2023-03-29T03:09:18.022Z,2.98
2023-03-29T03:11:45.409Z,2.95
2023-03-29T03:14:12.859Z,3.13
2023-03-29T03:16:40.188Z,3.03
2023-03-29T03:19:07.973Z,2.86
2023-03-29T03:21:36.284Z,2.80
2023-03-29T03:24:04.789Z,2.81
2023-03-29T03:26:32.132Z,2.71
2023-03-29T03:28:59.613Z,2.81
2023-03-29T03:31:27.128Z,2.64
2023-03-29T03:33:54.488Z,2.62
2023-03-29T03:36:21.796Z,2.92
2023-03-29T03:38:49.097Z,2.65
2023-03-29T03:41:16.639Z,2.79
2023-03-29T03:43:47.194Z,2.58
2023-03-29T03:46:17.878Z,4.55
2023-03-29T03:48:46.635Z,5.76
2023-03-29T03:51:15.063Z,8.63
2023-03-29T03:53:42.977Z,8.57
2023-03-29T03:56:11.109Z,8.56
2023-03-29T03:58:39.396Z,8.75
2023-03-29T04:01:08.300Z,8.18
2023-03-29T04:03:37.508Z,7.18
2023-03-29T04:06:06.636Z,7.65
2023-03-29T04:08:34.912Z,7.76
2023-03-29T04:11:03.026Z,7.67
2023-03-29T04:13:31.145Z,6.89
2023-03-29T04:16:01.387Z,6.63
2023-03-29T04:18:29.329Z,8.08
2023-03-29T04:20:57.336Z,5.10
2023-03-29T04:23:24.758Z,4.15
2023-03-29T04:25:54.999Z,3.79
2023-03-29T04:28:22.303Z,3.34
2023-03-29T04:30:50.066Z,3.35
2023-03-29T04:33:17.558Z,3.25
2023-03-29T04:35:44.980Z,3.38
2023-03-29T04:38:12.618Z,3.40
2023-03-29T04:40:39.940Z,3.91
2023-03-29T04:43:07.479Z,4.25
2023-03-29T04:45:34.916Z,4.25
2023-03-29T04:48:02.357Z,4.79
2023-03-29T04:50:29.926Z,4.28
2023-03-29T04:52:57.307Z,4.54
2023-03-29T04:55:24.662Z,4.81
2023-03-29T04:57:52.649Z,5.09
2023-03-29T05:00:20.432Z,5.60
2023-03-29T05:02:48.752Z,6.00
2023-03-29T05:05:16.656Z,5.86
2023-03-29T05:07:51.139Z,6.21
2023-03-29T05:10:19.006Z,6.58
2023-03-29T05:12:47.698Z,6.66
2023-03-29T05:15:15.482Z,6.53
2023-03-29T05:17:43.060Z,6.59
2023-03-29T05:20:10.672Z,6.59
2023-03-29T05:22:38.087Z,7.36
2023-03-29T05:25:06.465Z,7.02
2023-03-29T05:27:34.914Z,6.68
2023-03-29T05:30:02.400Z,7.39
2023-03-29T05:32:30.479Z,7.15
2023-03-29T05:34:57.971Z,7.95
2023-03-29T05:37:25.644Z,8.24
2023-03-29T05:39:52.947Z,9.02
2023-03-29T05:42:21.999Z,8.65
2023-03-29T05:44:50.677Z,8.55
2023-03-29T05:47:19.966Z,8.99
2023-03-29T05:49:47.313Z,9.14
2023-03-29T05:52:14.947Z,9.18
2023-03-29T05:54:42.362Z,8.92
2023-03-29T05:57:09.699Z,9.49
2023-03-29T05:59:37.125Z,10.31
2023-03-29T06:02:05.184Z,11.23
2023-03-29T06:04:33.601Z,10.26
2023-03-29T06:07:01.043Z,10.80
2023-03-29T06:09:28.418Z,11.33
2023-03-29T06:11:55.664Z,11.91
2023-03-29T06:14:23.236Z,12.24
2023-03-29T06:16:51.277Z,12.31
2023-03-29T06:19:20.302Z,12.25
2023-03-29T06:21:47.773Z,11.75
2023-03-29T06:24:15.141Z,11.49
2023-03-29T06:26:43.732Z,11.22
2023-03-29T06:29:11.200Z,11.68
2023-03-29T06:31:38.615Z,10.99
2023-03-29T06:34:05.971Z,12.04
2023-03-29T06:36:33.645Z,11.83
2023-03-29T06:39:01.037Z,11.29
2023-03-29T06:41:28.913Z,11.41
2023-03-29T06:43:56.331Z,11.44
2023-03-29T06:46:24.353Z,11.68
2023-03-29T06:48:51.982Z,10.65
2023-03-29T06:51:22.686Z,10.74
2023-03-29T06:53:51.484Z,10.15
2023-03-29T06:56:19.656Z,9.55
2023-03-29T06:58:47.148Z,9.03
2023-03-29T07:01:14.692Z,9.67
2023-03-29T07:03:43.656Z,8.71
2023-03-29T07:06:13.385Z,9.50
2023-03-29T07:08:41.397Z,9.65
2023-03-29T07:11:10.778Z,9.93
2023-03-29T07:13:42.035Z,9.74
2023-03-29T07:16:10.714Z,9.42
2023-03-29T07:18:42.825Z,8.11
2023-03-29T07:21:12.463Z,8.60
2023-03-29T07:23:40.227Z,9.39
2023-03-29T07:26:08.676Z,8.16
2023-03-29T07:28:36.578Z,7.64
2023-03-29T07:31:10.409Z,8.17
2023-03-29T07:33:39.420Z,8.43
2023-03-29T07:36:08.220Z,8.65
2023-03-29T07:38:35.742Z,8.57
2023-03-29T07:41:05.702Z,9.37
2023-03-29T07:43:33.285Z,9.38
2023-03-29T07:46:02.189Z,10.11
2023-03-29T07:48:30.545Z,10.15
2023-03-29T07:50:58.011Z,10.69
2023-03-29T07:53:25.403Z,10.83
2023-03-29T07:55:52.818Z,9.85
2023-03-29T07:58:20.402Z,10.55
2023-03-29T08:00:47.824Z,10.80
2023-03-29T08:03:15.663Z,10.07
2023-03-29T08:05:43.362Z,9.10
2023-03-29T08:08:11.082Z,10.35
2023-03-29T08:10:38.521Z,9.87
2023-03-29T08:13:08.237Z,9.10
2023-03-29T08:15:36.952Z,9.57
2023-03-29T08:18:04.524Z,9.69
2023-03-29T08:20:32.177Z,9.96
2023-03-29T08:22:59.550Z,10.08
2023-03-29T08:25:26.915Z,9.68
2023-03-29T08:27:54.411Z,10.45
2023-03-29T08:30:22.063Z,11.25
2023-03-29T08:32:51.630Z,11.23
2023-03-29T08:35:22.214Z,11.28
2023-03-29T08:37:49.690Z,11.21
2023-03-29T08:40:21.633Z,11.50
2023-03-29T08:43:24.771Z,10.65
2023-03-29T08:46:01.197Z,10.22
2023-03-29T08:48:45.953Z,10.42
2023-03-29T08:51:28.496Z,10.27
2023-03-29T08:54:04.277Z,10.06
2023-03-29T08:56:35.871Z,10.76
2023-03-29T08:59:03.700Z,11.72
2023-03-29T09:01:34.642Z,12.00
2023-03-29T09:04:13.939Z,12.02
2023-03-29T09:06:41.269Z,11.29
2023-03-29T09:09:15.758Z,11.33
2023-03-29T09:12:12.481Z,12.51
2023-03-29T09:14:45.719Z,12.26
2023-03-29T09:17:37.902Z,11.71
2023-03-29T09:20:05.395Z,11.62
2023-03-29T09:22:56.791Z,12.03
2023-03-29T09:25:38.346Z,12.29
2023-03-29T09:28:25.425Z,11.66
2023-03-29T09:31:02.633Z,12.28
2023-03-29T09:33:34.187Z,11.18
2023-03-29T09:36:08.992Z,10.92
2023-03-29T09:38:43.016Z,11.11
2023-03-29T09:41:31.950Z,11.42
2023-03-29T09:44:05.779Z,11.74
2023-03-29T09:46:42.122Z,11.83
2023-03-29T09:49:18.637Z,12.35
2023-03-29T09:51:50.035Z,12.72
2023-03-29T09:54:17.285Z,12.51
2023-03-29T09:56:44.735Z,12.57
2023-03-29T09:59:12.357Z,12.26
2023-03-29T10:01:42.925Z,12.22
2023-03-29T10:04:12.211Z,13.78
2023-03-29T10:06:46.066Z,15.39
2023-03-29T10:09:22.624Z,14.35
2023-03-29T10:11:56.644Z,15.31
2023-03-29T10:14:35.710Z,14.98
2023-03-29T10:17:11.087Z,13.66
2023-03-29T10:19:38.458Z,13.04
2023-03-29T10:22:14.578Z,12.91
2023-03-29T10:24:50.854Z,12.75
2023-03-29T10:27:24.817Z,13.89
2023-03-29T10:29:54.229Z,14.66
2023-03-29T10:32:34.765Z,14.67
2023-03-29T10:35:23.866Z,13.59
2023-03-29T10:37:53.485Z,12.81
2023-03-29T10:40:34.566Z,13.17
2023-03-29T10:43:13.611Z,12.79
2023-03-29T10:45:41.327Z,12.95
2023-03-29T10:48:16.348Z,12.63
2023-03-29T10:50:50.198Z,12.54
2023-03-29T10:53:27.001Z,12.01
2023-03-29T10:56:08.303Z,12.27
2023-03-29T10:59:06.794Z,14.27
2023-03-29T11:02:12.044Z,15.07
2023-03-29T11:04:43.111Z,15.39
2023-03-29T11:07:21.619Z,15.13
2023-03-29T11:10:26.153Z,14.96
2023-03-29T11:13:08.221Z,15.25
2023-03-29T11:15:44.701Z,14.16
2023-03-29T11:18:43.069Z,14.83
2023-03-29T11:21:31.693Z,15.00
2023-03-29T11:24:26.633Z,15.26
2023-03-29T11:27:22.547Z,15.44
2023-03-29T11:30:05.029Z,15.22
2023-03-29T11:33:15.079Z,15.57
2023-03-29T11:35:53.965Z,13.45
2023-03-29T11:38:27.243Z,12.39
2023-03-29T11:41:00.571Z,12.75
2023-03-29T11:43:34.138Z,12.70
2023-03-29T11:46:18.399Z,12.26
2023-03-29T11:49:04.330Z,12.06
2023-03-29T11:51:41.426Z,12.46
2023-03-29T11:54:25.261Z,12.41
2023-03-29T11:57:30.700Z,11.59
2023-03-29T12:00:07.062Z,12.28
2023-03-29T12:02:42.324Z,12.72
2023-03-29T12:05:18.708Z,12.42
2023-03-29T12:07:53.625Z,12.03
2023-03-29T12:10:26.836Z,12.47
2023-03-29T12:13:05.390Z,12.18
2023-03-29T12:15:41.519Z,12.52
2023-03-29T12:18:24.976Z,12.18
2023-03-29T12:20:59.993Z,12.69
2023-03-29T12:23:30.795Z,12.69
2023-03-29T12:26:22.835Z,11.81
2023-03-29T12:29:28.328Z,12.17
2023-03-29T12:32:00.323Z,12.51
2023-03-29T12:35:01.621Z,12.12
2023-03-29T12:38:06.682Z,12.40
2023-03-29T12:40:43.811Z,12.60
2023-03-29T12:43:27.321Z,12.69
2023-03-29T12:46:01.430Z,12.30
2023-03-29T12:48:30.417Z,12.24
2023-03-29T12:51:03.709Z,12.10
2023-03-29T12:54:00.121Z,11.51
2023-03-29T12:57:01.568Z,12.24
2023-03-29T12:59:43.932Z,12.14
2023-03-29T13:02:14.514Z,12.25
2023-03-29T13:04:42.485Z,12.46
2023-03-29T13:07:24.534Z,12.42
2023-03-29T13:09:53.286Z,12.37
2023-03-29T13:12:43.460Z,12.12
2023-03-29T13:15:23.749Z,11.55
2023-03-29T13:17:54.088Z,12.02
2023-03-29T13:21:17.645Z,12.17
2023-03-29T13:23:56.716Z,12.06
2023-03-29T13:26:41.828Z,11.74
2023-03-29T13:29:47.781Z,11.81
2023-03-29T13:32:37.331Z,12.28
2023-03-29T13:35:13.840Z,12.10
2023-03-29T13:37:55.796Z,11.62
2023-03-29T13:40:41.431Z,11.91
2023-03-29T13:43:17.809Z,11.85
2023-03-29T13:46:11.938Z,11.57
2023-03-29T13:48:39.327Z,11.55
2023-03-29T13:51:13.106Z,11.60
2023-03-29T13:53:49.456Z,11.54
2023-03-29T13:56:29.731Z,11.66
2023-03-29T13:59:05.376Z,11.47
2023-03-29T14:01:39.476Z,11.69
2023-03-29T14:04:14.593Z,11.58
2023-03-29T14:06:45.465Z,11.41
2023-03-29T14:09:16.577Z,11.45
2023-03-29T14:11:46.372Z,11.63
2023-03-29T14:14:14.292Z,11.48
2023-03-29T14:16:42.684Z,11.89
2023-03-29T14:19:17.001Z,11.73
2023-03-29T14:21:45.022Z,11.67
2023-03-29T14:24:19.896Z,11.58
2023-03-29T14:26:48.066Z,11.35
2023-03-29T14:29:15.522Z,11.43
2023-03-29T14:31:43.114Z,11.85
2023-03-29T14:34:18.792Z,11.63
2023-03-29T14:36:48.758Z,11.66
2023-03-29T14:39:20.033Z,11.62
2023-03-29T14:41:51.999Z,11.72
2023-03-29T14:44:22.332Z,11.52
2023-03-29T14:46:49.849Z,11.55
2023-03-29T14:49:19.702Z,11.58
2023-03-29T14:51:48.119Z,11.53
2023-03-29T14:54:32.066Z,11.35
2023-03-29T14:57:03.474Z,11.11
2023-03-29T14:59:36.962Z,11.15
2023-03-29T15:02:21.678Z,11.42
2023-03-29T15:05:07.096Z,11.35
2023-03-29T15:07:38.352Z,11.39
2023-03-29T15:10:06.809Z,11.27
2023-03-29T15:12:36.007Z,11.36
2023-03-29T15:15:03.586Z,11.27
2023-03-29T15:17:50.910Z,11.19
2023-03-29T15:20:22.108Z,11.10
2023-03-29T15:23:15.454Z,12.06
2023-03-29T15:25:57.158Z,11.39
2023-03-29T15:28:29.400Z,11.17
2023-03-29T15:31:14.439Z,11.22
2023-03-29T15:33:42.388Z,11.20
2023-03-29T15:36:12.414Z,11.07
2023-03-29T15:38:44.559Z,11.07
2023-03-29T15:41:15.939Z,11.29
2023-03-29T15:43:43.506Z,11.23
2023-03-29T15:46:13.182Z,10.61
2023-03-29T15:48:41.304Z,10.55
2023-03-29T15:51:12.212Z,10.63
2023-03-29T15:53:40.225Z,10.81
2023-03-29T15:56:09.991Z,10.23
2023-03-29T15:58:41.057Z,10.39
2023-03-29T16:01:37.129Z,10.52
2023-03-29T16:04:12.046Z,10.36
2023-03-29T16:06:39.815Z,10.38
2023-03-29T16:09:07.936Z,10.24
2023-03-29T16:11:35.452Z,10.24
2023-03-29T16:14:07.085Z,10.34
2023-03-29T16:16:37.299Z,10.32
2023-03-29T16:19:04.615Z,10.28
2023-03-29T16:21:31.973Z,10.19
2023-03-29T16:23:59.324Z,10.23
2023-03-29T16:26:26.741Z,10.03
2023-03-29T16:28:54.062Z,9.90
2023-03-29T16:31:21.416Z,9.91
2023-03-29T16:33:48.911Z,10.12
2023-03-29T16:36:16.264Z,9.99
2023-03-29T16:38:43.569Z,9.89
2023-03-29T16:41:15.068Z,9.54
2023-03-29T16:43:43.380Z,9.67
2023-03-29T16:46:11.690Z,9.50
2023-03-29T16:48:39.244Z,9.44
2023-03-29T16:51:06.898Z,9.60
2023-03-29T16:53:34.555Z,9.64
2023-03-29T16:56:04.155Z,9.31
2023-03-29T16:58:31.733Z,9.19
2023-03-29T17:01:07.190Z,9.23
2023-03-29T17:03:52.359Z,9.16
2023-03-29T17:06:37.546Z,8.93
2023-03-29T17:09:22.790Z,8.85
2023-03-29T17:12:08.117Z,9.00
2023-03-29T17:14:53.451Z,8.89
2023-03-29T17:17:38.983Z,10.66
2023-03-29T17:20:27.120Z,9.67
2023-03-29T17:23:12.605Z,9.09
2023-03-29T17:25:57.565Z,8.92
2023-03-29T17:28:42.879Z,8.75
2023-03-29T17:31:28.166Z,8.59
2023-03-29T17:34:14.528Z,8.65
2023-03-29T17:37:00.127Z,8.36
2023-03-29T17:39:45.060Z,8.46
2023-03-29T17:42:30.485Z,8.41
2023-03-29T17:45:16.007Z,8.20
2023-03-29T17:48:02.391Z,12.17
2023-03-29T17:50:49.831Z,13.56
2023-03-29T17:53:34.896Z,13.00
2023-03-29T17:56:20.937Z,11.99
2023-03-29T17:59:06.568Z,10.19
2023-03-29T18:01:51.637Z,9.71
2023-03-29T18:04:37.126Z,9.00
2023-03-29T18:07:23.111Z,8.54
2023-03-29T18:10:08.672Z,8.54
2023-03-29T18:12:57.039Z,8.22
2023-03-29T18:15:42.642Z,8.09
2023-03-29T18:18:28.170Z,8.09
2023-03-29T18:21:15.786Z,7.96
2023-03-29T18:24:00.942Z,7.82
2023-03-29T18:26:52.620Z,7.82
2023-03-29T18:29:44.684Z,7.84
2023-03-29T18:32:36.788Z,7.83
2023-03-29T18:35:28.652Z,7.78
2023-03-29T18:38:22.128Z,7.77
2023-03-29T18:41:14.184Z,7.59
2023-03-29T18:44:05.816Z,7.51
2023-03-29T18:46:57.526Z,7.46
2023-03-29T18:49:49.528Z,7.73
2023-03-29T18:52:41.853Z,7.28
2023-03-29T18:55:33.648Z,7.29
2023-03-29T18:58:25.530Z,7.15
2023-03-29T19:01:17.777Z,7.01
2023-03-29T19:04:09.835Z,6.88
2023-03-29T19:07:01.449Z,7.07
2023-03-29T19:09:53.894Z,7.00
2023-03-29T19:12:49.771Z,6.88
2023-03-29T19:15:42.083Z,6.81
2023-03-29T19:18:33.853Z,6.70
2023-03-29T19:21:28.215Z,6.74
2023-03-29T19:24:20.079Z,6.93
2023-03-29T19:27:12.675Z,6.82
2023-03-29T19:30:06.136Z,6.67
2023-03-29T19:32:57.782Z,6.67
2023-03-29T19:35:50.942Z,6.69
2023-03-29T19:38:42.693Z,6.72
2023-03-29T19:41:34.700Z,6.38
2023-03-29T19:44:26.592Z,6.36
2023-03-29T19:47:19.330Z,6.30
2023-03-29T19:50:10.913Z,6.39
2023-03-29T19:53:02.614Z,6.59
2023-03-29T19:55:54.977Z,6.43
2023-03-29T19:58:46.516Z,6.52
2023-03-29T20:01:38.749Z,6.53
2023-03-29T20:04:30.833Z,6.25
2023-03-29T20:07:22.635Z,6.09
2023-03-29T20:10:14.895Z,5.87
2023-03-29T20:13:06.875Z,5.95
2023-03-29T20:15:58.744Z,5.65
2023-03-29T20:18:50.725Z,5.67
2023-03-29T20:21:44.027Z,5.51
2023-03-29T20:24:35.754Z,5.29
2023-03-29T20:27:27.749Z,5.25
2023-03-29T20:30:19.427Z,5.44
2023-03-29T20:33:11.636Z,5.47
2023-03-29T20:36:04.070Z,5.30
2023-03-29T20:38:55.583Z,5.28
2023-03-29T20:41:47.346Z,5.12
2023-03-29T20:44:38.671Z,5.02
2023-03-29T20:47:33.305Z,4.91
2023-03-29T20:50:25.697Z,4.79
2023-03-29T20:53:17.797Z,4.83
2023-03-29T20:56:09.548Z,4.76
2023-03-29T20:59:01.795Z,4.72
2023-03-29T21:01:53.736Z,4.71
2023-03-29T21:04:50.125Z,4.82
2023-03-29T21:07:42.086Z,5.24
2023-03-29T21:10:33.772Z,5.09
2023-03-29T21:13:25.614Z,4.89
2023-03-29T21:16:17.388Z,5.08
2023-03-29T21:19:10.134Z,5.10
2023-03-29T21:22:01.996Z,5.01
2023-03-29T21:24:54.073Z,4.93
2023-03-29T21:27:46.382Z,4.97
2023-03-29T21:30:37.804Z,4.83
2023-03-29T21:33:30.038Z,4.79
2023-03-29T21:36:22.069Z,4.56
2023-03-29T21:39:08.209Z,4.45
2023-03-29T21:41:35.689Z,4.48
2023-03-29T21:44:03.306Z,4.40
2023-03-29T21:46:30.844Z,4.23
2023-03-29T21:48:58.363Z,4.38
2023-03-29T21:51:25.659Z,4.31
2023-03-29T21:53:53.165Z,4.28
2023-03-29T21:56:20.639Z,4.47
2023-03-29T21:58:47.975Z,4.48
2023-03-29T22:01:15.343Z,4.51
2023-03-29T22:03:42.863Z,4.40
2023-03-29T22:06:13.409Z,4.16
2023-03-29T22:08:41.521Z,4.34
2023-03-29T22:11:12.308Z,4.24
2023-03-29T22:13:40.924Z,4.26
2023-03-29T22:16:09.924Z,4.49
2023-03-29T22:18:37.868Z,4.57
2023-03-29T22:21:05.416Z,4.46
2023-03-29T22:23:32.720Z,4.48
2023-03-29T22:26:05.288Z,4.18
2023-03-29T22:28:33.830Z,4.16
2023-03-29T22:31:05.805Z,4.29
2023-03-29T22:33:35.087Z,4.23
2023-03-29T22:36:11.208Z,4.16
2023-03-29T22:38:38.583Z,4.30
2023-03-29T22:41:06.233Z,4.16
2023-03-29T22:43:34.115Z,3.97
2023-03-29T22:46:01.561Z,3.85
2023-03-29T22:48:29.052Z,3.46
2023-03-29T22:50:56.421Z,3.36
2023-03-29T22:53:23.786Z,3.45
2023-03-29T22:55:51.309Z,3.37
2023-03-29T22:58:19.170Z,3.33
2023-03-29T23:00:46.936Z,3.54
2023-03-29T23:03:14.478Z,3.45
2023-03-29T23:05:41.888Z,3.30
2023-03-29T23:08:09.233Z,3.23
2023-03-29T23:10:36.492Z,3.14
2023-03-29T23:13:04.372Z,3.19
2023-03-29T23:15:32.397Z,3.08
2023-03-29T23:17:59.821Z,3.13
2023-03-29T23:20:27.666Z,3.13
2023-03-29T23:22:55.064Z,3.33
2023-03-29T23:25:22.375Z,3.35
2023-03-29T23:27:49.733Z,3.30
2023-03-29T23:30:18.978Z,3.28
2023-03-29T23:32:46.619Z,3.20
2023-03-29T23:35:14.868Z,3.00
2023-03-29T23:37:42.898Z,3.08
2023-03-29T23:40:11.267Z,3.03
2023-03-29T23:42:38.921Z,3.07
2023-03-29T23:45:08.488Z,3.06
2023-03-29T23:47:35.825Z,2.87
2023-03-29T23:50:04.121Z,2.99
2023-03-29T23:52:32.197Z,2.90
2023-03-29T23:55:00.199Z,3.00
2023-03-29T23:57:28.237Z,2.93
2023-03-29T23:59:56.581Z,3.12
